METAR de aeropuertos de Murcia y cercanos

 

LEMI - Murcia/Corvera
Actualización: 18/05/2024 21:30
Despejado
Despejado
 Viento del SO
Viento: SO 13 km/h
Temperatura: 20°C
Rocío: 8°C
Humedad: 46%
Barómetro: 1010 hPa
Resumen: Despejado
Visibilidad: greater than 10 km
2024/05/18 19:30 LEMI 181930Z 22007KT CAVOK 20/08 Q1010
LERI - Murcia/Alcantarilla
Actualización: 18/05/2024 20:00
NO Actualizado
Despejado
Despejado
 Viento del SSE
Viento: SSE 20 km/h
Temperatura: 25°C
Rocío: 7°C
Humedad: 32%
Barómetro: 1009 hPa
Resumen: Despejado
Visibilidad: greater than 10 km
2024/05/18 18:00 LERI 181800Z 15011KT 120V190 CAVOK 25/07 Q1009 NOSIG
LELC - Murcia/San Javier
Actualización: 18/05/2024 21:30
Few Clouds
Few Clouds
 Viento del SSO
Viento: SSO 7 km/h
Temperatura: 21°C
Rocío: 13°C
Humedad: 60%
Barómetro: 1010 hPa
Nubosidad: Few Clouds
Visibilidad: 10 km
Cloud details: Few Clouds 914 m
2024/05/18 19:30 LELC 181930Z 21004KT 9999 FEW030 21/13 Q1010 NOSIG
 
LEAL - Alicante
Actualización: 18/05/2024 21:30
Despejado
Despejado
 Viento del E
Viento: E 6 km/h
Temperatura: 19°C
Rocío: 15°C
Humedad: 78%
Barómetro: 1010 hPa
Resumen: Despejado
Visibilidad: greater than 10 km
2024/05/18 19:30 LEAL 181930Z 09003KT 060V140 CAVOK 19/15 Q1010 NOSIG
LEAB - Albacete
Actualización: 18/05/2024 21:30
Few Clouds
Few Clouds
 Viento del S
Viento: S 11 km/h
Temperatura: 20°C
Rocío: 7°C
Humedad: 43%
Barómetro: 1011 hPa
Nubosidad: Few Clouds
Visibilidad: 10 km
Cloud details: Few Clouds 1372 m
2024/05/18 19:30 LEAB 181930Z 18006KT 140V220 9999 FEW045TCU 20/07 Q1011 NOSIG
LEAM - Almería
Actualización: 18/05/2024 21:30
Despejado
Despejado
 Viento del varies
Viento: varies 2 km/h
Temperatura: 19°C
Rocío: 15°C
Humedad: 78%
Barómetro: 1009 hPa
Resumen: Despejado
Visibilidad: greater than 10 km
2024/05/18 19:30 LEAM 181930Z VRB01KT CAVOK 19/15 Q1009

La estación de MeteoMurcia.com, publica sus datos en los siguientes proyectos:

Weather Underground PWS IMURCIAP2 Meteoclimatic www.awekas.at

Web Analytics

Clicky